Time;durP1;ratioP1;P1;durP2;ratioP2;P2;SDS_P1;SDS_P2;PMS_P1;PMS_P2;Temp;Humidity;BMP_temperature;BMP_pressure;BME280_temperature;BME280_humidity;BME280_pressure;Samples;Min_cycle;Max_cycle;Signal;HPM_P1;HPM_P2
2022/05/18 00:01:19;;;;;;;5.72;2.80;;;21.80;99.90;;;;;;5114951;27;20043;-80
2022/05/18 00:03:45;;;;;;;6.13;3.60;;;21.80;99.90;;;;;;5124800;27;20135;-79
2022/05/18 00:06:12;;;;;;;5.28;2.80;;;21.80;99.90;;;;;;5115168;27;20039;-80
2022/05/18 00:08:38;;;;;;;8.73;3.05;;;21.80;99.90;;;;;;5115415;27;20064;-79
2022/05/18 00:11:12;;;;;;;5.65;2.95;;;21.80;99.90;;;;;;5113393;27;20584;-79
2022/05/18 00:13:39;;;;;;;4.65;3.00;;;21.70;99.90;;;;;;5108504;27;20071;-79
2022/05/18 00:16:05;;;;;;;9.00;2.90;;;21.70;99.90;;;;;;5132388;27;20529;-79
2022/05/18 00:18:34;;;;;;;4.95;2.67;;;21.70;99.90;;;;;;5132000;27;20054;-78
2022/05/18 00:21:04;;;;;;;4.68;2.58;;;21.70;99.90;;;;;;5114378;27;20039;-79
2022/05/18 00:23:30;;;;;;;6.38;3.50;;;21.70;99.90;;;;;;5132820;27;20042;-79
2022/05/18 00:25:56;;;;;;;5.15;2.78;;;21.70;99.90;;;;;;5109634;27;20541;-79
2022/05/18 00:28:25;;;;;;;4.75;3.55;;;21.70;99.90;;;;;;5112616;27;20476;-79
2022/05/18 00:30:51;;;;;;;5.15;2.75;;;21.40;99.90;;;;;;5110953;27;20503;-78
2022/05/18 00:33:21;;;;;;;5.13;2.58;;;21.70;99.90;;;;;;5104881;27;20043;-79
2022/05/18 00:35:49;;;;;;;5.05;2.88;;;21.60;99.90;;;;;;5129590;27;20057;-79
2022/05/18 00:38:18;;;;;;;5.07;3.03;;;21.20;99.90;;;;;;5111940;27;20673;-79
2022/05/18 00:40:50;;;;;;;5.68;2.97;;;21.70;99.90;;;;;;5109955;27;20055;-78
2022/05/18 00:43:31;;;;;;;7.28;3.00;;;21.60;99.90;;;;;;5115103;27;20070;-79
2022/05/18 00:45:59;;;;;;;6.90;3.20;;;21.60;99.90;;;;;;5108210;27;20039;-79
2022/05/18 00:48:25;;;;;;;5.50;2.63;;;21.50;99.90;;;;;;5113396;27;20337;-79
2022/05/18 00:50:53;;;;;;;4.00;2.55;;;21.50;99.90;;;;;;5112145;27;20104;-79
2022/05/18 00:53:33;;;;;;;6.18;3.92;;;21.60;99.90;;;;;;5111253;27;20531;-78
2022/05/18 00:56:05;;;;;;;6.40;3.40;;;21.60;99.90;;;;;;5106014;27;20039;-79
2022/05/18 00:58:55;;;;;;;7.03;3.15;;;21.50;99.90;;;;;;5107761;27;20099;-78
2022/05/18 01:01:25;;;;;;;4.20;2.90;;;21.50;99.90;;;;;;5130023;27;20050;-79
2022/05/18 01:03:53;;;;;;;6.03;3.03;;;21.40;99.90;;;;;;5121113;27;20047;-79
2022/05/18 01:06:39;;;;;;;5.65;2.72;;;21.40;99.90;;;;;;5108788;27;20650;-79
2022/05/18 01:09:19;;;;;;;5.22;2.95;;;21.40;99.90;;;;;;5132176;27;20027;-79
2022/05/18 01:11:46;;;;;;;10.27;2.85;;;21.40;99.90;;;;;;5113130;27;20050;-79
2022/05/18 01:14:32;;;;;;;6.25;3.92;;;20.80;99.90;;;;;;5123897;27;20118;-80
2022/05/18 01:16:58;;;;;;;7.78;2.90;;;21.40;99.90;;;;;;5130524;27;20047;-79
2022/05/18 01:19:45;;;;;;;4.43;3.58;;;21.40;99.90;;;;;;5107315;27;20170;-79
2022/05/18 01:22:35;;;;;;;4.93;3.28;;;21.30;99.90;;;;;;5129324;27;20466;-79
2022/05/18 01:25:42;;;;;;;4.22;2.30;;;21.30;99.90;;;;;;5130804;27;20054;-79
2022/05/18 01:28:12;;;;;;;6.30;2.90;;;21.30;99.90;;;;;;5080489;27;20043;-79
2022/05/18 01:30:45;;;;;;;7.53;3.03;;;21.10;99.90;;;;;;5125041;27;20047;-79
2022/05/18 01:33:12;;;;;;;5.07;3.00;;;21.30;99.90;;;;;;5132703;27;20039;-79
2022/05/18 01:35:46;;;;;;;6.15;2.55;;;21.20;99.90;;;;;;5101843;27;20049;-79
2022/05/18 01:38:13;;;;;;;5.47;3.28;;;21.20;99.90;;;;;;5129451;27;20039;-80
2022/05/18 01:41:01;;;;;;;7.80;3.00;;;21.10;99.90;;;;;;5122579;27;20513;-79
2022/05/18 01:43:43;;;;;;;5.97;3.10;;;21.00;99.90;;;;;;5132830;27;20114;-79
2022/05/18 01:46:16;;;;;;;7.90;3.40;;;21.10;99.90;;;;;;5111254;27;20036;-79
2022/05/18 01:48:45;;;;;;;5.05;3.28;;;21.10;99.90;;;;;;5109574;27;21298;-79
2022/05/18 01:51:14;;;;;;;6.28;3.00;;;21.00;99.90;;;;;;5104551;27;20042;-79
2022/05/18 01:53:46;;;;;;;7.75;2.90;;;20.30;99.90;;;;;;5122319;27;20131;-79
2022/05/18 01:56:12;;;;;;;4.72;2.92;;;20.90;99.90;;;;;;5130864;27;20035;-78
2022/05/18 01:58:38;;;;;;;7.68;3.22;;;20.80;99.90;;;;;;5106726;27;20050;-79
2022/05/18 02:01:10;;;;;;;4.65;2.80;;;20.90;99.90;;;;;;5111879;27;20469;-78
2022/05/18 02:03:40;;;;;;;2.95;2.40;;;20.80;99.90;;;;;;5130322;27;20044;-79
2022/05/18 02:06:24;;;;;;;5.93;2.88;;;20.80;99.90;;;;;;5127866;27;20051;-79
2022/05/18 02:08:50;;;;;;;8.13;3.08;;;20.80;99.90;;;;;;5128423;27;20587;-78
2022/05/18 02:11:20;;;;;;;7.72;3.47;;;20.70;99.90;;;;;;5109536;27;20043;-79
2022/05/18 02:13:51;;;;;;;6.80;3.45;;;20.70;99.90;;;;;;5110569;27;20602;-80
2022/05/18 02:16:25;;;;;;;6.65;3.30;;;20.60;99.90;;;;;;5129208;27;20052;-79
2022/05/18 02:18:51;;;;;;;7.45;2.70;;;20.60;99.90;;;;;;5122736;27;20039;-80
2022/05/18 02:21:18;;;;;;;4.85;3.70;;;20.60;99.90;;;;;;5110960;27;20137;-80
2022/05/18 02:23:44;;;;;;;8.07;3.75;;;20.60;99.90;;;;;;5109264;27;20055;-79
2022/05/18 02:26:16;;;;;;;5.65;3.25;;;20.60;99.90;;;;;;5129843;27;20532;-79
2022/05/18 02:28:49;;;;;;;7.50;4.20;;;21.00;99.90;;;;;;5129037;27;20035;-79
2022/05/18 02:31:18;;;;;;;5.15;3.13;;;20.50;99.90;;;;;;5133388;27;20504;-80
2022/05/18 02:33:44;;;;;;;5.78;3.53;;;20.50;99.90;;;;;;5123906;27;20043;-79
2022/05/18 02:36:12;;;;;;;4.95;3.25;;;20.50;99.90;;;;;;5135304;27;20087;-79
2022/05/18 02:38:42;;;;;;;4.45;2.50;;;20.50;99.90;;;;;;5131287;27;20059;-79
2022/05/18 02:41:11;;;;;;;6.35;3.03;;;20.50;99.90;;;;;;5135540;27;20129;-79
2022/05/18 02:43:41;;;;;;;6.70;3.00;;;20.50;99.90;;;;;;5112440;27;20097;-79
2022/05/18 02:46:21;;;;;;;7.25;3.90;;;20.50;99.90;;;;;;5132599;27;20516;-79
2022/05/18 02:48:51;;;;;;;5.22;3.05;;;20.50;99.90;;;;;;5108747;27;21564;-79
2022/05/18 02:51:21;;;;;;;5.13;2.60;;;20.50;99.90;;;;;;5116063;27;20043;-78
2022/05/18 02:53:47;;;;;;;7.65;3.78;;;20.40;99.90;;;;;;5132286;27;20067;-79
2022/05/18 02:56:23;;;;;;;7.13;3.35;;;20.40;99.90;;;;;;5132920;27;20035;-79
2022/05/18 02:58:52;;;;;;;6.85;3.25;;;20.40;99.90;;;;;;5111642;27;20035;-79
2022/05/18 03:01:24;;;;;;;11.43;3.40;;;20.40;99.90;;;;;;5113097;27;20044;-79
2022/05/18 03:03:50;;;;;;;5.63;3.97;;;20.30;99.90;;;;;;5110835;27;20155;-78
2022/05/18 03:06:19;;;;;;;6.75;3.78;;;20.30;99.90;;;;;;5114008;27;20130;-78
2022/05/18 03:08:54;;;;;;;11.30;6.03;;;20.30;99.90;;;;;;5132391;27;20031;-79
2022/05/18 03:11:20;;;;;;;5.40;3.88;;;20.30;99.90;;;;;;5131881;27;20563;-79
2022/05/18 03:13:46;;;;;;;9.18;5.07;;;20.20;99.90;;;;;;5135347;27;20047;-79
2022/05/18 03:16:13;;;;;;;7.53;4.38;;;20.30;99.90;;;;;;5134837;27;20067;-79
2022/05/18 03:18:41;;;;;;;7.50;5.00;;;20.20;99.90;;;;;;5112214;27;20027;-78
2022/05/18 03:23:54;;;;;;;6.45;3.80;;;20.20;99.90;;;;;;5134347;27;20039;-78
2022/05/18 03:26:22;;;;;;;6.82;3.92;;;20.20;99.90;;;;;;5129973;27;20028;-78
2022/05/18 03:28:55;;;;;;;7.13;4.20;;;20.10;99.90;;;;;;5109270;27;20046;-78
2022/05/18 03:31:25;;;;;;;7.57;3.60;;;20.10;99.90;;;;;;5130601;27;20039;-78
2022/05/18 03:33:51;;;;;;;9.45;4.57;;;20.10;99.90;;;;;;5130650;27;20044;-78
2022/05/18 03:36:22;;;;;;;6.28;4.25;;;20.10;99.90;;;;;;5108727;27;20143;-78
2022/05/18 03:38:52;;;;;;;7.22;4.07;;;20.10;99.90;;;;;;5100128;27;20118;-78
2022/05/18 03:41:18;;;;;;;8.52;4.32;;;20.20;99.90;;;;;;5118015;27;20043;-79
2022/05/18 03:43:45;;;;;;;8.98;5.18;;;20.10;99.90;;;;;;5109660;27;20071;-79
2022/05/18 03:46:15;;;;;;;9.65;5.32;;;20.10;99.90;;;;;;5108953;27;20145;-78
2022/05/18 03:48:41;;;;;;;12.27;6.53;;;20.10;99.90;;;;;;5111948;27;20090;-78
2022/05/18 03:51:11;;;;;;;9.43;5.82;;;20.20;99.90;;;;;;5107798;27;20552;-78
2022/05/18 03:53:37;;;;;;;12.13;6.35;;;20.10;99.90;;;;;;5108133;27;20121;-79
2022/05/18 03:56:08;;;;;;;10.35;5.88;;;20.20;99.90;;;;;;5107789;27;20560;-78
2022/05/18 03:58:34;;;;;;;11.67;6.97;;;20.20;99.90;;;;;;5112548;27;20217;-78
2022/05/18 04:01:01;;;;;;;10.40;5.05;;;20.10;99.90;;;;;;5112730;27;20047;-78
2022/05/18 04:03:29;;;;;;;10.25;6.47;;;20.20;99.90;;;;;;5113557;27;20043;-77
2022/05/18 04:05:55;;;;;;;8.15;5.63;;;20.30;99.90;;;;;;5108933;27;20098;-79
2022/05/18 04:08:24;;;;;;;6.05;4.55;;;19.90;99.90;;;;;;5111819;27;20070;-78
2022/05/18 04:10:54;;;;;;;11.05;5.00;;;20.10;99.90;;;;;;5107813;27;20176;-77
2022/05/18 04:13:27;;;;;;;7.90;4.88;;;19.70;99.90;;;;;;5111798;27;20047;-78
2022/05/18 04:15:57;;;;;;;10.45;4.45;;;19.90;99.90;;;;;;5112242;27;20048;-78
2022/05/18 04:18:24;;;;;;;9.05;4.00;;;19.80;99.90;;;;;;5108718;27;20044;-78
2022/05/18 04:20:54;;;;;;;11.55;4.43;;;19.70;99.90;;;;;;5109139;27;20131;-78
2022/05/18 04:23:24;;;;;;;10.13;3.60;;;19.70;99.90;;;;;;5110526;27;20039;-77
2022/05/18 04:25:51;;;;;;;7.30;4.72;;;19.20;99.90;;;;;;5108554;27;20055;-79
2022/05/18 04:28:17;;;;;;;4.43;3.33;;;19.70;99.90;;;;;;5110440;27;20047;-78
2022/05/18 04:30:47;;;;;;;10.23;5.32;;;19.40;99.90;;;;;;5109956;27;20035;-78
2022/05/18 04:33:18;;;;;;;9.30;5.03;;;19.70;99.90;;;;;;5102661;27;20048;-78
2022/05/18 04:35:51;;;;;;;11.48;5.82;;;20.00;99.90;;;;;;5110171;27;20293;-78
2022/05/18 04:38:19;;;;;;;8.25;3.70;;;19.70;99.90;;;;;;5111025;27;20088;-78
2022/05/18 04:40:45;;;;;;;8.50;4.53;;;19.70;99.90;;;;;;5105782;27;20139;-79
2022/05/18 04:43:20;;;;;;;5.90;2.90;;;19.60;99.90;;;;;;5113089;27;20039;-79
2022/05/18 04:45:46;;;;;;;8.13;3.25;;;19.60;99.90;;;;;;5110759;27;20517;-79
2022/05/18 04:48:17;;;;;;;4.55;2.90;;;19.50;99.90;;;;;;5132479;27;20517;-78
2022/05/18 04:50:47;;;;;;;8.27;4.32;;;19.50;99.90;;;;;;5126297;27;20122;-79
2022/05/18 04:53:19;;;;;;;7.03;3.65;;;19.40;99.90;;;;;;5104760;27;20127;-78
2022/05/18 04:55:46;;;;;;;6.80;3.22;;;19.50;99.90;;;;;;5125343;27;20619;-78
2022/05/18 04:58:28;;;;;;;6.55;3.63;;;19.50;99.90;;;;;;5110298;27;20039;-81
2022/05/18 05:01:03;;;;;;;5.07;3.00;;;19.40;99.90;;;;;;5130162;27;20046;-79
2022/05/18 05:03:30;;;;;;;6.72;3.35;;;19.40;99.90;;;;;;5111473;27;20078;-81
2022/05/18 05:06:07;;;;;;;7.57;5.07;;;19.60;99.90;;;;;;5106024;27;20128;-81
2022/05/18 05:08:37;;;;;;;6.72;3.92;;;19.40;99.90;;;;;;5112599;27;20152;-77
2022/05/18 05:11:09;;;;;;;7.00;3.85;;;19.80;99.90;;;;;;5113856;27;20043;-79
2022/05/18 05:13:38;;;;;;;7.10;4.13;;;19.30;99.90;;;;;;5109820;27;20043;-77
2022/05/18 05:16:08;;;;;;;4.88;3.42;;;19.30;99.90;;;;;;5134302;27;20077;-79
2022/05/18 05:18:35;;;;;;;6.95;3.55;;;19.30;99.90;;;;;;5135885;27;20035;-79
2022/05/18 05:21:01;;;;;;;8.50;4.50;;;19.30;99.90;;;;;;5133651;27;22096;-76
2022/05/18 05:23:30;;;;;;;7.80;4.75;;;19.40;99.90;;;;;;5134290;27;20118;-76
2022/05/18 05:26:04;;;;;;;8.90;4.38;;;19.30;99.90;;;;;;5116872;27;20575;-76
2022/05/18 05:28:48;;;;;;;7.03;4.18;;;19.20;99.90;;;;;;5115565;27;20149;-77
2022/05/18 05:31:14;;;;;;;8.30;4.72;;;19.40;99.90;;;;;;5133174;27;20039;-76
2022/05/18 05:33:44;;;;;;;8.70;4.25;;;19.30;99.90;;;;;;5132668;27;20456;-81
2022/05/18 05:36:16;;;;;;;7.63;4.00;;;19.40;99.90;;;;;;5131951;27;20047;-78
2022/05/18 05:38:44;;;;;;;9.15;4.80;;;19.40;99.90;;;;;;5132054;27;20039;-82
2022/05/18 05:41:16;;;;;;;7.32;3.92;;;19.60;99.90;;;;;;5110269;27;20073;-78
2022/05/18 05:43:45;;;;;;;9.65;3.88;;;19.40;99.90;;;;;;5117756;27;20524;-78
2022/05/18 05:46:15;;;;;;;11.40;4.15;;;19.30;99.90;;;;;;5132601;27;20051;-78
2022/05/18 05:48:43;;;;;;;10.60;3.85;;;19.40;99.90;;;;;;5132289;27;21049;-77
2022/05/18 05:51:13;;;;;;;8.55;3.42;;;19.50;99.90;;;;;;5118731;27;20115;-77
2022/05/18 05:53:39;;;;;;;7.25;4.32;;;19.40;99.90;;;;;;5134186;27;20044;-77
2022/05/18 05:56:09;;;;;;;7.38;3.42;;;19.40;99.90;;;;;;5132775;27;20081;-77
2022/05/18 05:58:40;;;;;;;5.53;3.25;;;19.10;99.90;;;;;;5133271;27;20043;-77
2022/05/18 06:01:10;;;;;;;7.63;3.33;;;19.40;99.90;;;;;;5110408;27;20057;-76
2022/05/18 06:03:37;;;;;;;13.05;4.78;;;19.40;99.90;;;;;;5112835;27;20131;-76
2022/05/18 06:06:21;;;;;;;5.40;3.92;;;19.40;99.90;;;;;;5130757;27;20050;-79
2022/05/18 06:08:50;;;;;;;8.77;2.95;;;19.30;99.90;;;;;;5109662;27;20586;-77
2022/05/18 06:11:19;;;;;;;5.60;2.97;;;19.30;99.90;;;;;;5110894;27;20622;-78
2022/05/18 06:13:45;;;;;;;11.02;3.60;;;19.40;99.90;;;;;;5137563;27;20598;-77
2022/05/18 06:16:11;;;;;;;7.40;3.15;;;19.50;99.90;;;;;;5136376;27;20046;-78
2022/05/18 06:18:41;;;;;;;6.63;2.60;;;19.50;99.90;;;;;;5118091;27;20035;-78
2022/05/18 06:21:12;;;;;;;5.78;2.55;;;19.50;99.90;;;;;;5134009;27;20039;-78
2022/05/18 06:23:38;;;;;;;8.02;2.67;;;19.50;99.90;;;;;;5116762;27;20044;-78
2022/05/18 06:26:05;;;;;;;8.25;2.90;;;19.30;99.90;;;;;;5128302;27;20063;-78
2022/05/18 06:28:32;;;;;;;6.43;2.85;;;19.50;99.90;;;;;;5132862;27;20612;-78
2022/05/18 06:31:00;;;;;;;6.53;2.80;;;19.60;99.90;;;;;;5135328;27;20122;-78
2022/05/18 06:33:26;;;;;;;13.73;3.13;;;19.60;99.90;;;;;;5132081;27;20047;-78
2022/05/18 06:35:52;;;;;;;5.60;2.90;;;19.50;99.90;;;;;;5126053;27;20055;-78
2022/05/18 06:38:20;;;;;;;7.03;2.78;;;19.50;99.90;;;;;;5133455;27;20042;-78
2022/05/18 06:46:31;;;;;;;6.18;1.90;;;19.50;99.90;;;;;;5136544;27;20043;-78
2022/05/18 06:49:03;;;;;;;7.30;3.05;;;19.50;99.90;;;;;;5107557;27;20130;-78
2022/05/18 06:51:33;;;;;;;6.85;2.58;;;19.50;99.90;;;;;;5117201;27;20846;-78
2022/05/18 06:54:06;;;;;;;5.55;2.53;;;19.60;99.90;;;;;;5137738;27;20066;-77
2022/05/18 06:56:43;;;;;;;4.07;2.65;;;19.80;99.90;;;;;;5137739;27;20038;-77
2022/05/18 06:59:12;;;;;;;8.02;3.80;;;19.70;99.90;;;;;;5117305;27;20071;-78
2022/05/18 07:01:46;;;;;;;6.97;2.70;;;19.70;99.90;;;;;;5118440;27;20035;-78
2022/05/18 07:04:12;;;;;;;7.97;2.70;;;19.70;99.90;;;;;;5138625;27;20533;-78
2022/05/18 07:06:47;;;;;;;4.55;3.20;;;19.80;99.90;;;;;;5138217;27;20211;-78
2022/05/18 07:09:16;;;;;;;8.60;2.78;;;19.80;99.90;;;;;;5111986;27;20045;-78
2022/05/18 07:11:49;;;;;;;5.47;3.03;;;19.90;99.90;;;;;;5138232;27;20096;-78
2022/05/18 07:14:20;;;;;;;8.13;2.40;;;20.00;99.90;;;;;;5136735;27;20082;-78
2022/05/18 07:16:51;;;;;;;3.95;2.03;;;20.00;99.90;;;;;;5116995;27;20055;-78
2022/05/18 07:19:30;;;;;;;5.22;2.53;;;20.00;99.90;;;;;;5117552;27;20517;-78
2022/05/18 07:22:06;;;;;;;8.05;2.15;;;20.10;99.90;;;;;;5138116;27;20044;-78
2022/05/18 07:24:32;;;;;;;5.75;3.15;;;20.10;99.90;;;;;;5118737;27;20043;-77
2022/05/18 07:27:03;;;;;;;3.78;1.90;;;20.00;99.90;;;;;;5137830;27;20132;-78
2022/05/18 07:29:32;;;;;;;7.38;2.75;;;20.10;99.90;;;;;;5138173;27;20099;-79
2022/05/18 07:32:12;;;;;;;3.95;2.17;;;20.20;99.90;;;;;;5118014;27;20581;-78
2022/05/18 07:34:47;;;;;;;3.90;1.63;;;20.20;99.90;;;;;;5110707;27;20523;-78
2022/05/18 07:37:19;;;;;;;3.75;2.08;;;20.70;99.90;;;;;;5136966;27;20639;-78
2022/05/18 07:39:45;;;;;;;;;;;20.00;99.90;;;;;;5119060;27;20073;-78
2022/05/18 07:42:19;;;;;;;2.28;1.58;;;20.30;99.90;;;;;;5137160;27;20022;-77
2022/05/18 07:44:56;;;;;;;3.47;2.20;;;20.30;99.90;;;;;;5118760;27;20170;-77
2022/05/18 07:47:40;;;;;;;7.07;1.85;;;20.30;99.90;;;;;;5117652;27;20599;-77
2022/05/18 07:50:12;;;;;;;3.15;1.77;;;20.30;99.90;;;;;;5110635;27;20047;-78
2022/05/18 07:52:47;;;;;;;3.08;1.70;;;20.30;99.90;;;;;;5128519;27;20035;-77
2022/05/18 07:55:15;;;;;;;3.50;2.38;;;20.30;99.90;;;;;;5137901;27;20050;-77
2022/05/18 07:57:49;;;;;;;5.70;2.42;;;20.50;99.90;;;;;;5115906;27;20065;-78
2022/05/18 08:00:27;;;;;;;4.05;2.63;;;20.50;99.90;;;;;;5111482;27;21204;-79
2022/05/18 08:02:56;;;;;;;4.28;1.95;;;20.50;99.90;;;;;;5137696;27;20114;-78
2022/05/18 08:05:25;;;;;;;5.53;2.80;;;20.60;99.90;;;;;;5127489;27;20070;-78
2022/05/18 08:07:54;;;;;;;5.97;2.00;;;20.60;99.90;;;;;;5110363;27;20445;-78
2022/05/18 08:16:21;;;;;;;2.13;1.50;;;20.60;99.90;;;;;;5135986;27;20044;-78
2022/05/18 08:18:50;;;;;;;3.42;1.73;;;20.60;99.90;;;;;;5116807;27;20054;-78
2022/05/18 08:21:18;;;;;;;4.93;2.15;;;20.70;99.90;;;;;;5135651;27;20525;-78
2022/05/18 08:23:47;;;;;;;4.82;1.75;;;20.70;99.90;;;;;;5110164;27;20046;-78
2022/05/18 08:26:15;;;;;;;4.68;1.70;;;20.70;99.90;;;;;;5137189;27;20641;-78
2022/05/18 08:28:44;;;;;;;2.85;1.58;;;20.70;99.90;;;;;;5136791;27;20046;-78
2022/05/18 08:31:10;;;;;;;4.13;2.03;;;20.80;99.90;;;;;;5143176;27;20039;-78
2022/05/18 08:33:56;;;;;;;3.00;2.20;;;20.80;99.90;;;;;;5142325;27;20042;-78
2022/05/18 08:36:26;;;;;;;3.15;1.30;;;20.80;99.90;;;;;;5139000;27;20051;-78
2022/05/18 08:38:55;;;;;;;6.80;2.67;;;20.70;99.90;;;;;;5117977;27;20039;-78
2022/05/18 08:41:34;;;;;;;2.83;1.77;;;20.70;99.90;;;;;;5118924;27;20108;-76
2022/05/18 08:44:05;;;;;;;4.07;1.65;;;20.70;99.90;;;;;;5118865;27;20046;-78
2022/05/18 08:46:54;;;;;;;4.68;2.00;;;20.80;99.90;;;;;;5110777;27;20840;-78
2022/05/18 08:49:41;;;;;;;3.70;1.58;;;20.80;99.90;;;;;;5136330;27;20051;-78
2022/05/18 08:52:55;;;;;;;2.80;1.67;;;21.00;99.90;;;;;;5116092;27;20051;-78
2022/05/18 08:55:42;;;;;;;2.40;1.58;;;20.90;99.90;;;;;;5108695;27;20104;-78
2022/05/18 08:58:39;;;;;;;4.47;1.83;;;20.90;99.90;;;;;;5136004;27;20533;-77
2022/05/18 09:01:12;;;;;;;3.80;1.90;;;20.90;99.90;;;;;;5107052;27;20055;-78
2022/05/18 09:04:02;;;;;;;3.65;2.15;;;21.00;99.90;;;;;;5137301;27;20039;-78
2022/05/18 09:06:47;;;;;;;3.45;1.77;;;21.00;99.90;;;;;;5135960;27;20537;-76
2022/05/18 09:12:18;;;;;;;7.28;2.25;;;21.10;99.90;;;;;;5136375;27;20047;-78
2022/05/18 09:14:56;;;;;;;4.70;1.60;;;21.20;99.90;;;;;;5125889;27;20039;-77
2022/05/18 09:17:52;;;;;;;4.53;2.20;;;21.30;99.90;;;;;;5115063;27;20451;-77
2022/05/18 09:21:29;;;;;;;;;;;;;;;;;;;;;
2022/05/18 09:24:45;;;;;;;4.78;1.52;;;20.90;99.90;;;;;;5128102;27;43755;-78
2022/05/18 09:28:02;;;;;;;4.15;2.28;;;21.60;99.90;;;;;;5112618;27;20797;-78
2022/05/18 09:31:09;;;;;;;;;;;;;;;;;;;;;
2022/05/18 09:34:19;;;;;;;4.85;1.58;;;21.40;99.90;;;;;;5133192;27;42896;-78
2022/05/18 09:37:12;;;;;;;2.90;1.42;;;21.40;99.90;;;;;;5113442;27;20173;-77
2022/05/18 09:40:33;;;;;;;2.67;1.40;;;21.50;99.90;;;;;;5108619;27;20104;-78
2022/05/18 09:46:32;;;;;;;2.75;1.60;;;20.70;99.90;;;;;;5123295;27;20096;-78
2022/05/18 09:49:14;;;;;;;6.35;1.92;;;21.50;99.90;;;;;;5114801;27;20108;-78
2022/05/18 09:52:07;;;;;;;2.75;1.52;;;21.60;99.90;;;;;;5117086;27;20059;-79
2022/05/18 09:55:12;;;;;;;3.58;1.67;;;21.60;99.90;;;;;;5113391;27;20053;-78
2022/05/18 09:58:21;;;;;;;6.20;2.35;;;21.70;99.90;;;;;;5105576;27;20743;-77
2022/05/18 10:07:44;;;;;;;;;;;;;;;;;;;;;
2022/05/18 10:11:11;;;;;;;1.90;1.27;;;21.90;99.90;;;;;;5127936;27;43289;-78
2022/05/18 10:13:53;;;;;;;5.38;1.50;;;22.00;99.90;;;;;;5043159;28;20052;-79
2022/05/18 10:17:11;;;;;;;4.68;2.47;;;22.00;99.90;;;;;;5070832;27;20048;-77
2022/05/18 10:20:31;;;;;;;;;;;;;;;;;;;;;
2022/05/18 10:23:43;;;;;;;;;;;;;;;;;;;;;
2022/05/18 10:27:48;;;;;;;;;;;;;;;;;;;;;
2022/05/18 10:30:39;;;;;;;;;;;;;;;;;;;;;
2022/05/18 10:33:31;;;;;;;2.40;1.90;;;22.40;99.90;;;;;;5132077;27;41499;-78
2022/05/18 10:36:25;;;;;;;3.15;1.40;;;22.40;99.90;;;;;;5115622;27;20055;-77
2022/05/18 10:39:03;;;;;;;3.30;1.42;;;22.40;99.90;;;;;;5133959;27;20048;-78
2022/05/18 10:41:47;;;;;;;3.72;1.25;;;22.50;99.90;;;;;;5116121;27;20036;-78
2022/05/18 10:44:34;;;;;;;2.65;1.42;;;22.50;99.90;;;;;;5108911;27;20081;-78
2022/05/18 10:47:26;;;;;;;2.13;1.48;;;22.50;99.90;;;;;;5115218;27;20461;-78
2022/05/18 10:50:23;;;;;;;2.60;1.50;;;22.60;99.90;;;;;;5115711;27;20101;-78
2022/05/18 10:53:03;;;;;;;4.65;2.22;;;22.60;99.90;;;;;;5108471;27;20529;-77
2022/05/18 10:55:39;;;;;;;2.03;1.52;;;22.60;99.90;;;;;;5127785;27;20047;-78
2022/05/18 10:58:24;;;;;;;2.55;1.20;;;22.70;99.90;;;;;;5118625;27;20031;-78
2022/05/18 11:01:14;;;;;;;64.00;30.17;;;22.40;99.90;;;;;;5118280;27;20096;-78
2022/05/18 11:03:42;;;;;;;5.13;3.10;;;22.40;99.90;;;;;;5112644;27;20479;-78
2022/05/18 11:06:20;;;;;;;4.43;2.53;;;22.70;99.90;;;;;;5137443;27;21133;-78
2022/05/18 11:08:51;;;;;;;7.57;2.90;;;23.00;99.90;;;;;;5116860;27;20056;-78
2022/05/18 11:11:38;;;;;;;4.35;1.67;;;22.70;99.90;;;;;;5120069;27;20053;-78
2022/05/18 11:14:23;;;;;;;4.90;1.80;;;22.80;99.90;;;;;;5137722;27;20305;-78
2022/05/18 11:17:04;;;;;;;2.50;1.45;;;22.80;99.90;;;;;;5119242;27;20043;-79
2022/05/18 11:19:48;;;;;;;4.22;1.83;;;22.80;99.90;;;;;;5118062;27;20050;-77
2022/05/18 11:22:28;;;;;;;8.60;5.78;;;22.90;99.90;;;;;;5110864;27;20046;-78
2022/05/18 11:25:26;;;;;;;7.57;4.22;;;22.80;99.90;;;;;;5111331;27;20039;-79
2022/05/18 11:28:17;;;;;;;7.85;5.63;;;23.20;99.90;;;;;;5088866;27;20517;-79
2022/05/18 11:31:02;;;;;;;3.40;1.80;;;22.90;99.90;;;;;;5138548;27;20058;-78
2022/05/18 11:33:43;;;;;;;4.28;1.75;;;22.90;99.90;;;;;;5138144;27;20043;-78
2022/05/18 11:36:35;;;;;;;2.53;1.20;;;22.80;99.90;;;;;;5119015;27;20046;-78
2022/05/18 11:39:33;;;;;;;3.85;1.27;;;23.00;99.90;;;;;;5083413;27;20055;-78
2022/05/18 11:42:16;;;;;;;1.23;1.13;;;23.00;99.90;;;;;;5111573;27;20091;-77
2022/05/18 11:45:18;;;;;;;1.63;0.80;;;23.10;99.90;;;;;;5115848;27;20043;-78
2022/05/18 11:48:02;;;;;;;2.22;1.00;;;23.20;99.90;;;;;;5136787;27;20089;-78
2022/05/18 11:50:43;;;;;;;2.25;1.13;;;23.20;99.90;;;;;;5137188;27;20726;-78
2022/05/18 11:53:17;;;;;;;5.95;2.50;;;23.40;99.90;;;;;;5128272;27;20100;-78
2022/05/18 11:56:15;;;;;;;11.77;1.67;;;23.40;99.90;;;;;;5116882;27;20046;-78
2022/05/18 11:59:11;;;;;;;3.35;1.10;;;23.60;99.90;;;;;;5118434;27;20054;-77
2022/05/18 12:02:10;;;;;;;1.90;1.13;;;23.60;99.90;;;;;;5110730;27;20536;-77
2022/05/18 12:05:22;;;;;;;10.90;1.75;;;23.70;99.90;;;;;;5134792;27;20078;-79
2022/05/18 12:08:26;;;;;;;;;;;23.90;99.90;;;;;;5116160;27;20073;-78
2022/05/18 12:10:59;;;;;;;3.15;1.67;;;23.90;99.90;;;;;;5137144;27;20389;-78
2022/05/18 12:13:37;;;;;;;2.63;1.13;;;23.90;99.90;;;;;;5111013;27;20046;-78
2022/05/18 12:16:39;;;;;;;2.33;1.02;;;23.70;99.90;;;;;;5103426;27;20126;-78
2022/05/18 12:19:21;;;;;;;2.17;0.90;;;24.10;99.90;;;;;;5110244;27;20658;-78
2022/05/18 12:21:55;;;;;;;1.63;1.10;;;24.20;99.90;;;;;;5110537;27;20122;-77
2022/05/18 12:24:25;;;;;;;2.03;1.23;;;24.50;99.90;;;;;;5116285;27;20525;-78
2022/05/18 12:27:00;;;;;;;2.75;1.55;;;24.20;99.90;;;;;;5135784;27;20035;-79
2022/05/18 12:29:33;;;;;;;2.92;1.20;;;24.30;99.90;;;;;;5117724;27;20074;-77
2022/05/18 12:32:04;;;;;;;3.20;1.00;;;24.30;99.90;;;;;;5117421;27;20039;-78
2022/05/18 12:34:33;;;;;;;3.53;1.10;;;24.30;99.90;;;;;;5126298;27;20039;-77
2022/05/18 12:37:28;;;;;;;2.58;0.93;;;24.30;99.90;;;;;;5109563;27;20038;-77
2022/05/18 12:40:26;;;;;;;1.17;0.80;;;24.40;99.90;;;;;;5115798;27;20050;-78
2022/05/18 12:43:27;;;;;;;3.70;1.55;;;24.40;99.90;;;;;;5137087;27;20039;-78
2022/05/18 12:46:12;;;;;;;2.25;1.30;;;24.40;99.90;;;;;;5096750;27;20039;-78
2022/05/18 12:49:09;;;;;;;0.98;0.88;;;24.40;99.90;;;;;;5116159;27;20047;-78
2022/05/18 12:52:05;;;;;;;4.80;1.58;;;24.50;99.90;;;;;;5113994;27;20142;-78
2022/05/18 12:54:55;;;;;;;4.82;1.50;;;24.30;99.90;;;;;;5136115;27;20577;-78
2022/05/18 12:57:52;;;;;;;2.90;1.05;;;24.40;99.90;;;;;;5111244;27;20090;-78
2022/05/18 13:00:23;;;;;;;2.20;1.05;;;24.50;99.90;;;;;;5035939;27;20137;-78
2022/05/18 13:03:09;;;;;;;4.78;1.48;;;24.70;99.90;;;;;;5109327;27;20561;-78
2022/05/18 13:05:47;;;;;;;3.65;1.60;;;24.50;99.90;;;;;;5134082;27;20035;-78
2022/05/18 13:08:37;;;;;;;2.33;1.10;;;24.80;99.90;;;;;;5117776;27;20039;-78
2022/05/18 13:11:24;;;;;;;2.88;1.17;;;24.60;99.90;;;;;;5117475;27;20100;-77
2022/05/18 13:14:07;;;;;;;3.60;1.20;;;24.70;99.90;;;;;;5102946;27;20058;-78
2022/05/18 13:16:39;;;;;;;2.10;1.10;;;24.70;99.90;;;;;;5115806;27;21335;-78
2022/05/18 13:22:28;;;;;;;4.55;1.40;;;24.80;99.90;;;;;;5136450;27;20552;-79
2022/05/18 13:25:05;;;;;;;2.28;1.42;;;24.80;99.90;;;;;;5116597;27;20035;-78
2022/05/18 13:27:45;;;;;;;4.78;1.30;;;25.00;99.90;;;;;;5108608;27;21217;-78
2022/05/18 13:30:22;;;;;;;2.28;0.98;;;24.90;99.90;;;;;;5137036;27;20528;-79
2022/05/18 13:32:54;;;;;;;1.85;1.23;;;24.90;99.90;;;;;;5109092;27;20084;-78
2022/05/18 13:35:28;;;;;;;2.55;1.25;;;25.00;99.90;;;;;;5114626;27;20035;-79
2022/05/18 13:38:25;;;;;;;2.15;1.10;;;25.20;99.90;;;;;;5109289;27;20577;-78
2022/05/18 13:44:09;;;;;;;4.72;1.23;;;25.20;99.20;;;;;;5134862;27;20516;-78
2022/05/18 13:46:41;;;;;;;1.55;1.00;;;25.20;99.10;;;;;;5117040;27;20051;-80
2022/05/18 13:49:21;;;;;;;4.53;1.20;;;25.30;98.60;;;;;;5136471;27;20046;-79
2022/05/18 13:52:08;;;;;;;2.15;1.38;;;25.30;97.90;;;;;;5135734;27;20047;-79
2022/05/18 13:54:44;;;;;;;3.42;1.40;;;25.30;97.50;;;;;;5114899;27;20043;-79
2022/05/18 13:57:46;;;;;;;1.38;0.90;;;25.30;97.20;;;;;;5116533;27;20043;-78
2022/05/18 14:00:42;;;;;;;2.17;0.90;;;25.30;96.80;;;;;;5136878;27;20043;-78
2022/05/18 14:03:14;;;;;;;5.22;1.70;;;25.30;96.60;;;;;;5135692;27;20074;-78
2022/05/18 14:05:42;;;;;;;1.92;1.15;;;25.30;96.50;;;;;;5134031;27;20116;-79
2022/05/18 14:08:40;;;;;;;2.20;1.20;;;25.40;96.10;;;;;;5117055;27;20047;-78
2022/05/18 14:11:20;;;;;;;2.75;1.40;;;25.50;95.80;;;;;;5135635;27;20109;-78
2022/05/18 14:13:55;;;;;;;2.38;1.10;;;25.50;95.50;;;;;;5109934;27;20047;-79
2022/05/18 14:16:38;;;;;;;3.50;1.30;;;25.60;95.40;;;;;;5114450;27;20135;-78
2022/05/18 14:19:13;;;;;;;1.90;1.00;;;25.60;95.10;;;;;;5108466;27;20042;-78
2022/05/18 14:21:47;;;;;;;3.35;1.50;;;25.70;95.00;;;;;;5135325;27;20069;-78